Time;durP1;ratioP1;P1;durP2;ratioP2;P2;SDS_P1;SDS_P2;PMS_P1;PMS_P2;Temp;Humidity;BMP_temperature;BMP_pressure;BME280_temperature;BME280_humidity;BME280_pressure;Samples;Min_cycle;Max_cycle;Signal;HPM_P1;HPM_P2
2021/10/24 00:00:19;;;;;;;2.35;0.95;;;;;;;6.06;84.00;98695.84;4940933;29;20047;-56
2021/10/24 00:02:46;;;;;;;2.22;1.20;;;;;;;6.07;83.73;98697.53;4948509;29;20042;-53
2021/10/24 00:05:12;;;;;;;4.80;1.20;;;;;;;5.97;83.67;98695.22;4938799;29;20047;-53
2021/10/24 00:07:39;;;;;;;1.92;1.23;;;;;;;6.12;83.09;98693.06;4936527;29;20057;-53
2021/10/24 00:10:05;;;;;;;2.80;1.20;;;;;;;6.09;83.35;98691.41;4949789;28;20419;-57
2021/10/24 00:12:31;;;;;;;2.72;1.42;;;;;;;6.16;83.42;98700.66;4983826;28;20039;-53
2021/10/24 00:14:57;;;;;;;1.50;0.70;;;;;;;6.06;84.40;98693.25;4975002;28;20404;-53
2021/10/24 00:17:23;;;;;;;3.50;1.10;;;;;;;6.03;84.58;98683.03;4952144;28;20050;-53
2021/10/24 00:19:49;;;;;;;3.95;1.48;;;;;;;6.08;85.44;98697.47;4952583;29;20159;-55
2021/10/24 00:22:14;;;;;;;1.55;1.10;;;;;;;6.01;86.34;98684.81;4947989;29;20046;-54
2021/10/24 00:24:40;;;;;;;2.55;1.10;;;;;;;6.08;86.57;98697.47;4933588;29;20054;-54
2021/10/24 00:27:06;;;;;;;2.70;1.30;;;;;;;6.10;86.52;98697.41;4945542;29;20069;-55
2021/10/24 00:29:32;;;;;;;2.70;1.10;;;;;;;6.13;86.51;98707.63;4952577;29;20089;-51
2021/10/24 00:31:58;;;;;;;4.28;1.33;;;;;;;6.21;86.33;98706.50;4951884;29;20051;-50
2021/10/24 00:34:23;;;;;;;3.20;1.17;;;;;;;6.22;86.55;98708.19;4952344;29;20031;-54
2021/10/24 00:36:49;;;;;;;3.13;1.40;;;;;;;6.19;87.20;98715.19;4935338;29;20046;-53
2021/10/24 00:39:15;;;;;;;1.50;1.00;;;;;;;6.04;87.74;98705.34;4952345;28;20047;-52
2021/10/24 00:41:43;;;;;;;2.28;1.20;;;;;;;5.91;88.91;98695.41;4950663;28;20117;-54
2021/10/24 00:44:26;;;;;;;2.45;1.50;;;;;;;5.93;89.32;98714.28;4966637;28;20480;-55
2021/10/24 00:46:54;;;;;;;3.65;1.20;;;;;;;5.93;89.95;98709.13;4952488;28;20126;-54
2021/10/24 00:49:20;;;;;;;1.20;0.93;;;;;;;5.87;90.04;98724.78;4951095;29;20098;-53
2021/10/24 00:51:47;;;;;;;2.38;1.20;;;;;;;5.88;89.93;98723.03;4950140;28;20060;-56
2021/10/24 00:54:13;;;;;;;2.00;1.25;;;;;;;5.92;89.23;98711.72;4949000;29;20089;-54
2021/10/24 00:56:42;;;;;;;3.58;1.10;;;;;;;5.93;88.58;98714.28;4948686;29;20070;-58
2021/10/24 00:59:08;;;;;;;4.93;1.27;;;;;;;5.96;89.02;98721.09;4940127;29;20138;-55
2021/10/24 01:01:35;;;;;;;2.08;1.38;;;;;;;5.91;89.16;98716.03;4932473;28;20050;-52
2021/10/24 01:04:03;;;;;;;4.40;1.00;;;;;;;5.99;88.63;98722.72;4964568;28;20043;-50
2021/10/24 01:06:31;;;;;;;3.00;1.48;;;;;;;5.91;88.85;98707.50;4948972;29;20039;-52
2021/10/24 01:08:56;;;;;;;1.40;1.10;;;;;;;6.01;88.96;98729.53;4950852;29;20519;-53
2021/10/24 01:11:25;;;;;;;4.95;1.67;;;;;;;5.99;88.53;98718.41;4948990;29;20055;-55
2021/10/24 01:13:51;;;;;;;3.53;1.40;;;;;;;6.07;88.69;98720.75;4949700;29;20506;-57
2021/10/24 01:16:18;;;;;;;3.10;1.45;;;;;;;6.07;88.36;98726.72;4949881;29;20047;-54
2021/10/24 01:18:44;;;;;;;2.35;1.17;;;;;;;6.13;87.87;98736.00;4948556;29;20108;-55
2021/10/24 01:21:12;;;;;;;4.15;1.42;;;;;;;6.20;87.89;98727.19;4934125;29;20121;-58
2021/10/24 01:23:38;;;;;;;4.43;1.38;;;;;;;6.26;87.33;98727.00;4948248;29;20042;-55
2021/10/24 01:26:06;;;;;;;2.78;1.45;;;;;;;6.15;87.59;98714.44;4951182;28;20050;-55
2021/10/24 01:28:33;;;;;;;2.15;1.27;;;;;;;6.23;87.27;98729.66;4950183;29;20090;-54
2021/10/24 01:30:59;;;;;;;2.97;1.35;;;;;;;6.19;87.12;98726.34;4949429;29;20047;-52
2021/10/24 01:33:26;;;;;;;5.38;1.50;;;;;;;6.15;87.94;98735.09;4949214;28;20105;-52
2021/10/24 01:35:54;;;;;;;1.90;1.20;;;;;;;6.11;88.05;98733.50;4949019;29;20050;-54
2021/10/24 01:38:20;;;;;;;5.63;1.70;;;;;;;6.17;88.06;98733.31;4950307;28;20143;-55
2021/10/24 01:40:46;;;;;;;1.92;1.45;;;;;;;6.18;88.23;98734.13;4932006;29;20137;-56
2021/10/24 01:43:12;;;;;;;2.38;1.23;;;;;;;6.13;88.11;98731.69;4936527;29;20134;-56
2021/10/24 01:45:38;;;;;;;4.43;1.75;;;;;;;6.17;88.37;98729.88;4933427;29;20044;-54
2021/10/24 01:48:13;;;;;;;1.92;1.58;;;;;;;6.21;87.70;98737.47;4918489;29;20047;-53
2021/10/24 01:50:40;;;;;;;3.33;1.70;;;;;;;6.23;87.50;98743.41;4949240;28;20443;-51
2021/10/24 01:53:07;;;;;;;2.30;1.25;;;;;;;6.24;87.52;98741.69;4949038;28;20171;-55
2021/10/24 01:55:34;;;;;;;2.55;1.70;;;;;;;6.25;87.41;98746.81;4949631;29;20047;-56
2021/10/24 01:58:01;;;;;;;3.15;1.65;;;;;;;6.18;87.46;98744.44;4949964;29;20047;-55
2021/10/24 02:00:29;;;;;;;1.63;1.17;;;;;;;6.20;87.66;98746.09;4942520;28;20066;-54
2021/10/24 02:02:55;;;;;;;2.72;1.50;;;;;;;6.24;86.63;98750.28;4933937;29;20043;-54
2021/10/24 02:05:50;;;;;;;2.15;1.50;;;;;;;6.22;86.65;98748.66;4949755;29;20578;-55
2021/10/24 02:08:17;;;;;;;1.65;1.20;;;;;;;6.30;86.12;98744.06;4949793;29;20039;-55
2021/10/24 02:10:43;;;;;;;3.20;1.52;;;;;;;6.27;86.52;98752.78;4960887;28;20047;-57
2021/10/24 02:13:16;;;;;;;4.45;1.40;;;;;;;6.25;85.97;98754.53;4935407;29;20071;-53
2021/10/24 02:15:43;;;;;;;2.88;1.70;;;;;;;6.06;87.07;98730.22;4947671;28;20052;-56
2021/10/24 02:18:10;;;;;;;3.42;1.30;;;;;;;6.21;87.42;98757.28;4935920;29;20138;-56
2021/10/24 02:20:41;;;;;;;2.65;1.55;;;;;;;6.23;88.25;98758.06;4906760;29;20072;-52
2021/10/24 02:23:08;;;;;;;1.92;1.30;;;;;;;6.19;88.76;98753.88;4949549;28;20137;-55
2021/10/24 02:25:35;;;;;;;2.08;1.45;;;;;;;6.10;89.49;98742.13;4933944;29;20236;-55
2021/10/24 02:28:02;;;;;;;4.32;1.75;;;;;;;6.25;89.94;98766.59;4966151;28;20098;-54
2021/10/24 02:30:29;;;;;;;3.30;1.88;;;;;;;6.25;90.23;98766.59;4959480;28;20031;-52
2021/10/24 02:33:00;;;;;;;2.78;1.63;;;;;;;6.33;90.77;98764.63;4949276;29;20043;-56
2021/10/24 02:35:55;;;;;;;4.10;2.42;;;;;;;6.33;90.37;98738.84;4950957;29;20055;-55
2021/10/24 02:38:21;;;;;;;3.05;2.00;;;;;;;6.44;90.29;98765.13;4937415;29;20050;-56
2021/10/24 02:40:47;;;;;;;2.75;2.10;;;;;;;6.32;90.17;98748.31;4936880;29;20432;-55
2021/10/24 02:43:15;;;;;;;5.75;1.38;;;;;;;6.33;90.42;98768.03;4965205;28;20039;-55
2021/10/24 02:45:40;;;;;;;3.63;1.85;;;;;;;6.28;90.69;98769.91;4937308;29;20431;-54
2021/10/24 02:48:07;;;;;;;2.58;1.60;;;;;;;6.31;90.95;98764.69;4953264;28;20053;-53
2021/10/24 02:50:34;;;;;;;1.50;1.15;;;;;;;6.28;90.73;98763.94;4934088;29;20497;-53
2021/10/24 02:53:01;;;;;;;1.80;1.20;;;;;;;6.22;91.13;98764.97;4937569;29;20137;-52
2021/10/24 02:55:27;;;;;;;2.30;1.23;;;;;;;6.19;91.91;98767.63;4954328;29;20064;-55
2021/10/24 02:57:56;;;;;;;3.28;1.00;;;;;;;6.13;92.15;98767.81;4953208;29;20047;-53
2021/10/24 03:00:22;;;;;;;3.70;1.30;;;;;;;6.13;92.28;98770.41;4935448;29;20099;-54
2021/10/24 03:02:49;;;;;;;1.58;1.10;;;;;;;6.19;91.86;98772.81;4952721;29;20135;-56
2021/10/24 03:05:15;;;;;;;1.48;1.08;;;;;;;6.23;91.05;98773.53;4953134;29;20134;-56
2021/10/24 03:07:44;;;;;;;1.60;0.98;;;;;;;6.23;90.56;98773.53;4952511;29;20049;-51
2021/10/24 03:10:10;;;;;;;3.33;1.08;;;;;;;6.19;89.86;98777.97;4920584;29;20122;-61
2021/10/24 03:12:36;;;;;;;1.85;0.85;;;;;;;6.26;89.93;98776.88;4968539;28;20093;-56
2021/10/24 03:15:03;;;;;;;1.40;0.70;;;;;;;6.39;89.41;98785.06;4953861;28;20047;-54
2021/10/24 03:17:30;;;;;;;1.20;0.70;;;;;;;6.32;88.72;98786.19;4952966;29;20134;-54
2021/10/24 03:19:56;;;;;;;1.40;0.77;;;;;;;6.36;89.17;98775.69;4952448;29;20134;-56
2021/10/24 03:22:21;;;;;;;3.63;0.90;;;;;;;6.37;88.75;98784.28;4936340;29;20093;-55
2021/10/24 03:24:47;;;;;;;0.90;0.70;;;;;;;6.38;88.86;98781.63;4952733;29;20046;-53
2021/10/24 03:27:13;;;;;;;0.80;0.80;;;;;;;6.31;88.60;98762.09;4949180;29;20040;-55
2021/10/24 03:29:39;;;;;;;1.45;0.70;;;;;;;6.50;88.48;98789.88;4949740;29;20036;-55
2021/10/24 03:32:06;;;;;;;1.10;0.70;;;;;;;6.33;88.71;98769.81;4920756;29;20054;-55
2021/10/24 03:34:32;;;;;;;1.65;0.77;;;;;;;6.44;88.81;98792.69;4952284;29;20035;-55
2021/10/24 03:36:59;;;;;;;1.45;0.90;;;;;;;6.43;89.25;98797.00;4952325;29;20683;-56
2021/10/24 03:39:24;;;;;;;1.83;1.00;;;;;;;6.42;89.27;98781.56;4937252;29;20074;-56
2021/10/24 03:41:51;;;;;;;4.85;1.40;;;;;;;6.57;89.66;98794.81;4952006;28;20051;-55
2021/10/24 03:44:18;;;;;;;1.98;0.90;;;;;;;6.44;90.90;98772.84;4968546;28;20050;-58
2021/10/24 03:46:44;;;;;;;1.77;0.93;;;;;;;6.50;92.08;98795.06;4951246;29;20500;-54
2021/10/24 03:49:10;;;;;;;4.72;1.20;;;;;;;6.51;92.56;98795.00;4951324;28;20102;-56
2021/10/24 03:51:41;;;;;;;1.92;1.33;;;;;;;6.60;93.11;98799.88;4936314;29;20047;-53
2021/10/24 03:54:06;;;;;;;1.33;1.00;;;;;;;6.43;92.36;98797.00;4932773;29;20428;-52
2021/10/24 03:56:32;;;;;;;1.77;1.02;;;;;;;6.34;93.32;98805.03;4948564;29;20511;-49
2021/10/24 03:58:59;;;;;;;2.50;0.82;;;;;;;6.32;93.76;98812.00;4951880;29;20097;-52
2021/10/24 04:01:24;;;;;;;0.68;0.47;;;;;;;6.25;93.93;98813.06;4951674;29;20137;-54
2021/10/24 04:03:50;;;;;;;4.85;1.52;;;;;;;6.15;94.80;98812.50;4939230;29;20517;-54
2021/10/24 04:06:17;;;;;;;3.30;1.23;;;;;;;6.25;94.33;98813.91;4935391;29;20055;-57
2021/10/24 04:08:43;;;;;;;2.90;0.90;;;;;;;6.30;93.82;98816.34;4948694;29;20134;-55
2021/10/24 04:11:09;;;;;;;0.82;0.63;;;;;;;6.34;93.53;98811.03;4959110;28;20177;-51
2021/10/24 04:13:35;;;;;;;2.35;0.82;;;;;;;6.28;93.30;98803.47;4934705;29;20039;-55
2021/10/24 04:16:02;;;;;;;1.13;0.60;;;;;;;6.30;93.19;98813.75;4935512;29;20106;-55
2021/10/24 04:18:46;;;;;;;4.55;1.45;;;;;;;6.44;93.13;98828.84;4951826;28;20470;-53
2021/10/24 04:21:13;;;;;;;4.93;0.80;;;;;;;6.49;92.57;98826.97;4951569;29;20174;-54
2021/10/24 04:23:39;;;;;;;1.00;0.70;;;;;;;6.44;92.44;98828.84;4952288;28;20138;-53
2021/10/24 04:26:04;;;;;;;1.25;0.57;;;;;;;6.25;91.45;98828.53;4951211;29;20087;-52
2021/10/24 04:28:30;;;;;;;2.83;0.50;;;;;;;6.07;91.95;98829.13;4952496;29;20047;-53
2021/10/24 04:30:56;;;;;;;7.80;0.40;;;;;;;5.96;92.74;98834.59;4951515;28;20053;-53
2021/10/24 04:33:23;;;;;;;1.25;0.57;;;;;;;5.94;92.26;98834.63;4951023;29;20055;-52
2021/10/24 04:35:49;;;;;;;0.73;0.40;;;;;;;6.03;92.04;98836.09;4933439;29;20093;-52
2021/10/24 04:38:16;;;;;;;0.90;0.70;;;;;;;6.10;92.09;98839.34;4950619;28;20043;-51
2021/10/24 04:40:42;;;;;;;0.98;0.30;;;;;;;6.12;91.86;98851.31;4951805;28;20043;-56
2021/10/24 04:43:16;;;;;;;1.48;0.63;;;;;;;6.10;92.25;98860.81;4931590;29;20677;-52
2021/10/24 04:45:42;;;;;;;1.75;0.52;;;;;;;6.22;91.93;98862.19;4948038;29;20051;-51
2021/10/24 04:48:09;;;;;;;0.65;0.40;;;;;;;6.19;91.58;98868.28;4931855;29;20062;-50
2021/10/24 04:50:41;;;;;;;0.95;0.30;;;;;;;6.02;91.71;98873.09;4961222;28;20583;-55
2021/10/24 04:53:09;;;;;;;2.08;0.40;;;;;;;5.99;93.13;98870.59;4957925;28;20055;-55
2021/10/24 04:55:37;;;;;;;1.25;0.50;;;;;;;5.89;93.52;98880.34;4932141;29;20055;-54
2021/10/24 04:58:03;;;;;;;0.30;0.30;;;;;;;5.86;94.50;98884.72;4932243;29;20069;-54
2021/10/24 05:00:29;;;;;;;1.38;0.60;;;;;;;5.80;95.15;98877.16;4934324;29;20043;-55
2021/10/24 05:02:55;;;;;;;1.60;0.55;;;;;;;5.87;94.84;98894.16;4950679;28;20047;-52
2021/10/24 05:05:21;;;;;;;1.23;0.68;;;;;;;5.83;95.73;98898.53;4950873;28;20137;-50
2021/10/24 05:07:48;;;;;;;1.13;0.55;;;;;;;5.91;96.12;98899.19;4931487;29;20051;-54
2021/10/24 05:10:14;;;;;;;2.28;0.70;;;;;;;6.05;95.52;98896.25;4950188;29;20094;-50
2021/10/24 05:12:40;;;;;;;1.42;0.60;;;;;;;5.94;94.09;98904.28;4950419;29;20043;-56
2021/10/24 05:15:06;;;;;;;3.92;0.40;;;;;;;6.01;94.34;98899.81;4950666;28;20177;-56
2021/10/24 05:17:36;;;;;;;0.47;0.40;;;;;;;5.95;93.56;98895.66;4934167;29;20046;-55
2021/10/24 05:20:03;;;;;;;1.05;0.30;;;;;;;5.99;93.21;98913.63;4950331;29;20089;-52
2021/10/24 05:22:31;;;;;;;0.73;0.40;;;;;;;5.97;92.55;98908.50;4951190;29;20551;-54
2021/10/24 05:24:58;;;;;;;2.33;0.70;;;;;;;5.95;92.21;98923.19;4930267;29;20140;-51
2021/10/24 05:27:25;;;;;;;1.27;0.45;;;;;;;5.94;91.38;98919.75;4945945;29;20067;-55
2021/10/24 05:29:51;;;;;;;1.33;0.60;;;;;;;5.90;91.10;98925.06;4940721;29;20487;-53
2021/10/24 05:32:18;;;;;;;1.30;0.60;;;;;;;5.93;91.88;98925.81;4950504;29;20055;-55
2021/10/24 05:34:43;;;;;;;0.77;0.45;;;;;;;6.00;91.00;98928.22;4951751;29;20046;-51
2021/10/24 05:37:19;;;;;;;1.67;0.60;;;;;;;5.97;89.79;98934.28;4949708;29;20047;-57
2021/10/24 05:39:46;;;;;;;1.38;0.60;;;;;;;6.10;89.81;98942.53;4934675;29;20066;-55
2021/10/24 05:42:31;;;;;;;0.40;0.30;;;;;;;6.09;88.35;98933.97;4951335;28;20110;-54
2021/10/24 05:44:58;;;;;;;3.75;0.55;;;;;;;6.12;87.53;98943.34;4950031;29;20043;-56
2021/10/24 05:47:24;;;;;;;0.57;0.40;;;;;;;6.16;86.74;98940.66;4950224;29;20086;-55
2021/10/24 05:49:52;;;;;;;0.90;0.50;;;;;;;6.18;86.35;98943.16;4950180;29;20045;-56
2021/10/24 05:52:22;;;;;;;1.02;0.40;;;;;;;6.29;85.50;98954.03;4949592;29;20079;-55
2021/10/24 05:54:50;;;;;;;0.45;0.30;;;;;;;6.36;84.81;98955.56;4933553;29;20047;-54
2021/10/24 05:57:21;;;;;;;0.90;0.60;;;;;;;6.39;84.03;98955.44;4936770;29;20134;-55
2021/10/24 06:00:06;;;;;;;0.68;0.30;;;;;;;6.38;82.89;98967.50;4950083;29;20071;-53
2021/10/24 06:02:44;;;;;;;0.90;0.52;;;;;;;6.42;82.90;98957.13;4955731;28;20909;-51
2021/10/24 06:05:39;;;;;;;0.50;0.40;;;;;;;6.57;82.40;98970.41;4923771;29;20114;-54
2021/10/24 06:08:06;;;;;;;0.30;0.20;;;;;;;6.61;81.08;98969.44;4940366;28;20039;-54
2021/10/24 06:10:34;;;;;;;2.20;0.30;;;;;;;6.60;80.29;98972.06;4954641;28;20061;-52
2021/10/24 06:13:01;;;;;;;0.30;0.28;;;;;;;6.46;80.22;98980.22;4951650;28;20047;-55
2021/10/24 06:15:27;;;;;;;0.20;0.20;;;;;;;6.44;80.00;98973.41;4955294;28;20046;-55
2021/10/24 06:17:53;;;;;;;0.55;0.50;;;;;;;6.42;79.74;98972.59;4954621;28;20058;-51
2021/10/24 06:20:21;;;;;;;1.27;0.50;;;;;;;6.62;79.54;98983.19;4968846;28;20051;-51
2021/10/24 06:22:47;;;;;;;0.52;0.35;;;;;;;6.57;79.45;98975.59;4955177;29;20043;-55
2021/10/24 06:25:14;;;;;;;0.77;0.40;;;;;;;6.66;79.09;98988.22;4954089;29;20053;-56
2021/10/24 06:27:44;;;;;;;0.93;0.60;;;;;;;6.71;78.70;98983.75;4953467;28;20519;-56
2021/10/24 06:30:13;;;;;;;0.98;0.30;;;;;;;6.77;78.17;98986.16;4969159;28;20051;-56
2021/10/24 06:32:57;;;;;;;1.17;0.60;;;;;;;6.72;77.92;98992.34;4954591;29;20046;-58
2021/10/24 06:35:45;;;;;;;0.43;0.40;;;;;;;6.75;77.53;98990.50;4954978;29;20478;-55
2021/10/24 06:38:34;;;;;;;1.77;0.70;;;;;;;6.87;77.12;98997.06;4929593;29;20051;-57
2021/10/24 06:41:12;;;;;;;0.90;0.60;;;;;;;6.94;77.14;98996.00;4953018;29;20106;-54
2021/10/24 06:43:50;;;;;;;0.47;0.38;;;;;;;7.06;77.03;98994.78;4919839;29;20039;-59
2021/10/24 06:46:34;;;;;;;2.13;1.00;;;;;;;7.11;76.96;98995.47;4944624;29;20047;-56
2021/10/24 06:49:18;;;;;;;0.50;0.35;;;;;;;7.08;75.57;98992.97;4954045;28;20117;-55
2021/10/24 06:51:45;;;;;;;0.47;0.47;;;;;;;7.00;75.72;98994.97;4952527;29;20505;-58
2021/10/24 06:54:36;;;;;;;1.17;0.45;;;;;;;6.91;75.56;99006.41;4941657;29;20059;-57
2021/10/24 06:57:11;;;;;;;0.70;0.50;;;;;;;7.04;75.26;99017.22;4936131;29;20039;-55
2021/10/24 07:00:19;;;;;;;0.52;0.30;;;;;;;6.98;75.71;99020.84;4913343;29;20044;-55
2021/10/24 07:03:03;;;;;;;0.50;0.30;;;;;;;6.88;75.85;99026.31;4912143;29;20432;-53
2021/10/24 07:05:48;;;;;;;0.47;0.35;;;;;;;6.86;76.16;99016.03;4942875;28;20082;-57
2021/10/24 07:08:23;;;;;;;3.45;0.30;;;;;;;6.96;75.25;99025.19;4933977;29;20508;-53
2021/10/24 07:10:49;;;;;;;0.20;0.20;;;;;;;6.88;74.80;99016.84;4953266;28;20075;-56
2021/10/24 07:13:15;;;;;;;0.85;0.45;;;;;;;7.07;74.76;99028.31;4945120;29;20086;-54
2021/10/24 07:15:50;;;;;;;1.00;0.40;;;;;;;7.23;74.38;99026.09;4952738;29;20499;-52
2021/10/24 07:18:16;;;;;;;0.95;0.40;;;;;;;7.30;73.74;99027.59;4944156;29;20055;-56
2021/10/24 07:20:42;;;;;;;0.50;0.20;;;;;;;7.35;72.50;99035.19;4942729;29;20051;-56
2021/10/24 07:23:07;;;;;;;0.20;0.20;;;;;;;7.35;73.09;99043.81;4927618;28;20044;-52
2021/10/24 07:25:59;;;;;;;0.30;0.25;;;;;;;7.36;72.28;99037.75;4943462;29;20051;-52
2021/10/24 07:28:25;;;;;;;0.60;0.50;;;;;;;7.50;71.92;99045.06;4943575;29;20047;-56
2021/10/24 07:30:52;;;;;;;0.98;0.75;;;;;;;7.59;71.73;99049.91;4943762;29;20050;-53
2021/10/24 07:33:21;;;;;;;1.17;0.30;;;;;;;7.66;70.96;99056.59;4942309;29;20051;-55
2021/10/24 07:36:17;;;;;;;0.57;0.30;;;;;;;7.66;70.83;99056.59;4943331;29;20059;-50
2021/10/24 07:38:44;;;;;;;0.38;0.32;;;;;;;7.68;70.75;99069.50;4943811;29;20431;-55
2021/10/24 07:41:10;;;;;;;3.50;0.32;;;;;;;7.63;70.17;99065.31;4927871;29;20542;-55
2021/10/24 07:43:39;;;;;;;0.10;0.10;;;;;;;7.64;69.20;99072.16;4942583;29;20043;-52
2021/10/24 07:46:07;;;;;;;0.80;0.30;;;;;;;7.45;69.30;99077.97;4943195;28;20075;-53
2021/10/24 07:48:33;;;;;;;0.82;0.35;;;;;;;7.52;69.48;99079.50;4960760;28;20035;-54
2021/10/24 07:51:00;;;;;;;0.45;0.20;;;;;;;7.47;69.09;99082.22;4942352;29;20058;-55
2021/10/24 07:53:29;;;;;;;0.22;0.20;;;;;;;7.28;68.98;99099.19;4948024;29;20050;-54
2021/10/24 07:55:58;;;;;;;1.45;0.40;;;;;;;7.24;69.75;99101.03;4951285;29;20558;-53
2021/10/24 07:59:05;;;;;;;2.50;0.40;;;;;;;7.37;69.90;99093.75;4922786;29;20040;-52
2021/10/24 08:01:34;;;;;;;1.00;0.50;;;;;;;7.40;70.16;99109.16;4921923;29;20440;-54
2021/10/24 08:04:00;;;;;;;1.67;0.30;;;;;;;7.39;70.21;99106.59;4934968;29;20124;-54
2021/10/24 08:06:36;;;;;;;0.30;0.30;;;;;;;7.31;70.23;99096.50;4949746;29;20047;-48
2021/10/24 08:09:05;;;;;;;1.02;0.50;;;;;;;7.44;70.61;99110.75;4919213;29;20126;-56
2021/10/24 08:11:32;;;;;;;0.57;0.40;;;;;;;7.50;70.65;99113.16;4950133;29;20164;-52
2021/10/24 08:13:59;;;;;;;0.70;0.40;;;;;;;7.62;70.26;99114.50;4936622;29;20515;-52
2021/10/24 08:16:24;;;;;;;1.00;0.40;;;;;;;7.65;69.58;99114.41;4940764;29;20079;-53
2021/10/24 08:18:51;;;;;;;1.25;0.32;;;;;;;7.68;69.23;99119.50;4941973;29;20476;-50
2021/10/24 08:21:43;;;;;;;0.40;0.30;;;;;;;7.72;68.59;99123.66;4942226;28;20151;-52
2021/10/24 08:24:10;;;;;;;0.60;0.47;;;;;;;7.63;68.40;99106.72;4939141;29;20035;-54
2021/10/24 08:26:44;;;;;;;0.68;0.40;;;;;;;7.89;67.99;99129.16;4943277;29;20404;-54
2021/10/24 08:29:10;;;;;;;0.82;0.40;;;;;;;7.81;67.51;99112.16;4942418;29;20053;-53
2021/10/24 08:31:38;;;;;;;0.50;0.40;;;;;;;7.85;67.02;99134.50;4944681;29;20042;-49
2021/10/24 08:34:04;;;;;;;1.48;0.70;;;;;;;7.89;67.09;99143.84;4939699;29;20036;-53
2021/10/24 08:36:31;;;;;;;1.40;0.95;;;;;;;7.95;67.01;99141.06;4915998;29;20050;-51
2021/10/24 08:38:57;;;;;;;2.33;0.50;;;;;;;8.00;67.28;99152.97;4933615;29;20549;-54
2021/10/24 08:41:29;;;;;;;0.98;0.57;;;;;;;7.92;65.84;99152.34;4948522;28;20539;-53
2021/10/24 08:44:00;;;;;;;0.82;0.55;;;;;;;7.76;66.71;99163.22;4944150;29;20516;-55
2021/10/24 08:46:26;;;;;;;4.32;0.90;;;;;;;7.73;66.73;99164.19;4941761;28;20043;-52
2021/10/24 08:48:53;;;;;;;2.25;0.60;;;;;;;7.79;66.60;99174.34;4943813;29;20051;-53
2021/10/24 08:51:20;;;;;;;2.45;0.60;;;;;;;7.81;67.00;99180.31;4942210;29;20051;-54
2021/10/24 08:53:47;;;;;;;1.63;0.50;;;;;;;7.72;66.41;99184.91;4944846;29;20035;-52
2021/10/24 08:56:25;;;;;;;0.75;0.55;;;;;;;7.74;67.07;99180.56;4950359;29;20110;-49
2021/10/24 08:58:51;;;;;;;0.82;0.60;;;;;;;7.61;66.80;99169.72;4952486;28;20055;-52
2021/10/24 09:01:18;;;;;;;1.23;0.70;;;;;;;7.75;66.89;99196.00;4950404;29;20051;-53
2021/10/24 09:04:04;;;;;;;0.80;0.50;;;;;;;7.77;66.79;99193.38;4923931;29;20159;-55
2021/10/24 09:06:57;;;;;;;0.57;0.50;;;;;;;7.53;66.40;99197.56;4944313;29;20056;-53
2021/10/24 09:09:35;;;;;;;0.73;0.50;;;;;;;7.41;65.82;99213.44;4945209;29;20047;-55
2021/10/24 09:12:09;;;;;;;1.25;0.73;;;;;;;7.32;66.39;99204.22;4945517;29;20047;-50
2021/10/24 09:14:42;;;;;;;1.33;0.70;;;;;;;7.45;66.54;99215.03;4935068;29;20039;-51
2021/10/24 09:17:16;;;;;;;1.83;0.55;;;;;;;7.56;66.19;99219.00;4948878;29;20906;-54
2021/10/24 09:19:45;;;;;;;0.88;0.70;;;;;;;7.74;65.80;99217.63;4947155;28;20082;-52
2021/10/24 09:22:17;;;;;;;2.53;0.60;;;;;;;7.78;65.07;99226.13;4946948;29;20523;-54
2021/10/24 09:25:02;;;;;;;0.77;0.60;;;;;;;7.86;64.47;99221.56;4933709;29;20051;-55
2021/10/24 09:27:31;;;;;;;2.03;0.80;;;;;;;7.86;63.76;99227.59;4947682;28;20538;-52
2021/10/24 09:30:08;;;;;;;0.55;0.47;;;;;;;7.80;63.44;99214.81;4947703;29;20043;-51
2021/10/24 09:32:57;;;;;;;1.88;0.70;;;;;;;7.96;62.95;99239.34;4945563;28;20043;-53
2021/10/24 09:35:25;;;;;;;0.98;0.60;;;;;;;7.95;62.63;99239.41;4962152;28;20058;-52
2021/10/24 09:38:16;;;;;;;1.05;0.65;;;;;;;7.92;62.44;99235.16;4949828;29;20054;-56
2021/10/24 09:40:59;;;;;;;;;;;;;;;7.96;62.77;99248.84;4948674;28;20043;-50
2021/10/24 09:43:31;;;;;;;1.77;0.60;;;;;;;8.01;62.82;99254.72;4950478;28;20013;-54
2021/10/24 09:45:57;;;;;;;1.45;0.75;;;;;;;7.80;61.62;99252.81;4942702;28;20046;-52
2021/10/24 09:48:27;;;;;;;0.93;0.65;;;;;;;7.82;61.99;99276.91;4946504;29;20039;-55
2021/10/24 09:50:55;;;;;;;1.52;0.70;;;;;;;7.83;62.13;99263.94;4951716;29;20050;-54
2021/10/24 09:53:28;;;;;;;2.92;0.93;;;;;;;7.77;61.98;99265.84;4949348;29;20419;-51
2021/10/24 09:55:55;;;;;;;1.08;0.80;;;;;;;7.73;62.32;99292.69;4944081;28;20043;-53
2021/10/24 09:58:32;;;;;;;1.15;0.73;;;;;;;7.59;63.14;99293.94;4969635;28;20578;-54
2021/10/24 10:00:59;;;;;;;1.25;0.70;;;;;;;7.31;63.50;99307.69;4953044;29;20087;-52
2021/10/24 10:03:25;;;;;;;1.05;0.50;;;;;;;7.12;64.26;99302.16;4950911;29;20054;-49
2021/10/24 10:05:53;;;;;;;3.10;0.63;;;;;;;7.06;65.04;99303.19;4949944;29;20563;-49
2021/10/24 10:08:19;;;;;;;1.30;0.68;;;;;;;7.00;65.40;99305.06;4950464;29;20547;-49
2021/10/24 10:10:55;;;;;;;1.92;0.65;;;;;;;7.13;64.83;99309.00;4948048;29;20047;-52
2021/10/24 10:13:25;;;;;;;1.30;0.70;;;;;;;7.24;65.00;99318.19;4950796;29;20463;-51
2021/10/24 10:15:52;;;;;;;1.15;0.65;;;;;;;7.37;64.82;99315.28;4950145;29;20452;-52
2021/10/24 10:18:22;;;;;;;1.88;0.80;;;;;;;7.48;64.59;99321.88;4919915;29;20129;-51
2021/10/24 10:21:02;;;;;;;1.85;0.60;;;;;;;7.48;64.50;99323.59;4933552;29;20144;-56
2021/10/24 10:23:39;;;;;;;1.05;0.60;;;;;;;7.52;64.53;99331.22;4950563;29;20039;-54
2021/10/24 10:26:41;;;;;;;1.33;0.68;;;;;;;7.50;64.13;99329.56;4943830;29;20079;-48
2021/10/24 10:29:28;;;;;;;2.50;0.85;;;;;;;7.51;64.25;99339.88;4950054;28;20121;-51
2021/10/24 10:32:15;;;;;;;2.88;1.20;;;;;;;7.36;63.55;99335.13;4963015;28;20101;-51
2021/10/24 10:34:56;;;;;;;2.65;1.00;;;;;;;7.32;63.90;99335.25;4946901;29;20044;-53
2021/10/24 10:37:40;;;;;;;1.73;0.68;;;;;;;7.22;63.57;99343.22;4950625;29;20035;-51
2021/10/24 10:40:13;;;;;;;3.50;1.10;;;;;;;7.25;64.06;99342.31;4949515;28;20047;-54
2021/10/24 10:42:42;;;;;;;1.25;0.90;;;;;;;7.33;63.78;99342.13;4949080;28;20415;-48
2021/10/24 10:45:14;;;;;;;1.35;0.90;;;;;;;7.40;63.11;99351.38;4944891;28;20475;-53
2021/10/24 10:47:53;;;;;;;2.38;0.80;;;;;;;7.49;63.06;99348.56;4949510;29;20039;-48
2021/10/24 10:50:28;;;;;;;2.70;0.70;;;;;;;7.53;63.02;99352.78;4960821;28;20528;-52
2021/10/24 10:52:58;;;;;;;1.33;0.90;;;;;;;7.40;62.80;99349.66;4941708;28;20472;-56
2021/10/24 10:55:25;;;;;;;1.95;1.00;;;;;;;7.55;62.66;99349.25;4944761;28;20066;-54
2021/10/24 10:57:55;;;;;;;1.48;1.05;;;;;;;7.62;62.79;99360.28;4949166;28;20050;-53
2021/10/24 11:00:37;;;;;;;2.55;1.35;;;;;;;7.57;62.76;99372.47;4957860;28;20039;-56
2021/10/24 11:03:04;;;;;;;2.80;1.50;;;;;;;7.39;63.87;99381.56;4953357;28;20134;-53
2021/10/24 11:05:39;;;;;;;2.53;1.00;;;;;;;7.30;64.75;99386.16;4951113;29;20125;-54
2021/10/24 11:08:42;;;;;;;1.95;1.00;;;;;;;7.24;65.62;99405.25;4949710;28;20512;-58
2021/10/24 11:11:08;;;;;;;2.17;0.90;;;;;;;7.25;66.05;99406.94;4961728;28;20039;-54
2021/10/24 11:13:34;;;;;;;1.27;0.88;;;;;;;7.14;65.64;99401.19;4963184;28;20098;-49
2021/10/24 11:16:32;;;;;;;1.27;0.82;;;;;;;7.12;65.50;99419.31;4967685;28;20460;-58
2021/10/24 11:18:59;;;;;;;2.75;1.05;;;;;;;7.16;65.66;99428.72;4944786;29;20039;-58
2021/10/24 11:21:28;;;;;;;1.30;0.60;;;;;;;7.13;64.74;99438.25;4933367;29;20046;-56
2021/10/24 11:23:57;;;;;;;1.40;0.90;;;;;;;6.98;65.00;99413.66;4941921;29;20448;-57
2021/10/24 11:26:24;;;;;;;1.45;0.60;;;;;;;7.04;64.02;99447.09;4946369;28;20051;-56
2021/10/24 11:28:50;;;;;;;0.90;0.60;;;;;;;6.99;63.85;99440.34;4950977;29;20153;-59
2021/10/24 11:31:20;;;;;;;0.45;0.40;;;;;;;6.90;63.25;99446.59;4951133;29;20043;-57
2021/10/24 11:33:50;;;;;;;1.60;0.70;;;;;;;7.00;62.78;99462.72;4943472;28;20060;-61
2021/10/24 11:36:24;;;;;;;1.38;0.60;;;;;;;6.95;62.81;99475.75;4939864;29;20040;-58
2021/10/24 11:38:55;;;;;;;1.63;0.40;;;;;;;6.98;62.55;99467.06;4946724;29;20641;-54
2021/10/24 11:41:22;;;;;;;1.40;0.50;;;;;;;6.96;62.32;99479.19;4949559;29;20058;-56
2021/10/24 11:43:49;;;;;;;1.38;0.50;;;;;;;6.97;62.17;99489.47;4949608;29;20138;-56
2021/10/24 11:46:15;;;;;;;0.50;0.47;;;;;;;6.91;61.72;99476.69;4945109;29;20815;-61
2021/10/24 11:48:41;;;;;;;6.18;0.93;;;;;;;6.86;61.72;99482.84;4944572;29;20507;-58
2021/10/24 11:51:16;;;;;;;1.48;0.70;;;;;;;6.90;61.28;99487.94;4941239;28;20059;-55
2021/10/24 11:53:46;;;;;;;1.10;0.65;;;;;;;6.92;61.06;99482.72;4962896;28;20523;-55
2021/10/24 12:01:33;;;;;;;2.72;0.98;;;;;;;6.73;60.37;99515.88;4932054;29;20051;-58